Stolt Shearwater — ZCRD9 — position and weather

sailwx.info

Track history (hours):
 
Tides and Currents Weather Stations Pressure Air Temp Water Temp Dewpoint Dewpoint Depression Visibility Wind Speed Wind Dir Waves Ship Positions

Stolt Shearwater

Last reported at 2017-Dec-11 05:59 UTC. Time now 2017-Dec-11 06:03 UTC.
Position N 51°31' E 000°08'.

Length 96 m; draft 6.6 m.

Type: Ship (hazmat cat D). MMSI: 319402000.

Date/timePositionNaut miles runAvg speedWind from/ knotsBaromVisibWave heightAir tempDewpointWater temp
2017-Dec-11 05:59N 51°31' E 000°08'0 0.0
2017-Dec-11 05:29N 51°31' E 000°08'0 0.0
2017-Dec-11 04:56N 51°31' E 000°08'0 0.0
2017-Dec-11 04:29N 51°31' E 000°08'0 0.0
2017-Dec-11 03:58N 51°31' E 000°08'0 0.0
2017-Dec-11 03:28N 51°31' E 000°08'0 0.0
2017-Dec-11 02:59N 51°31' E 000°08'0 0.0
2017-Dec-11 02:29N 51°31' E 000°08'0 0.0
2017-Dec-11 01:59N 51°31' E 000°08'0 0.0
2017-Dec-11 01:29N 51°31' E 000°08'0 0.0
2017-Dec-11 00:56N 51°31' E 000°08'0 0.0
2017-Dec-11 00:29N 51°31' E 000°08'0 0.0
2017-Dec-10 23:59N 51°31' E 000°08'0 0.0
2017-Dec-10 23:28N 51°31' E 000°08'0 0.0
2017-Dec-10 22:58N 51°31' E 000°08'0 0.0
2017-Dec-10 22:29N 51°31' E 000°08'0 0.0
2017-Dec-10 21:58N 51°31' E 000°08'0 0.0
2017-Dec-10 21:29N 51°31' E 000°08'43 3.6
2017-Dec-10 09:20N 51°29' E 001°18'3 9.8
2017-Dec-10 09:00N 51°28' E 001°23'5 9.1
2017-Dec-10 08:31N 51°26' E 001°29'1 2.7
2017-Dec-10 08:01N 51°25' E 001°27'1 2.2
2017-Dec-10 07:31N 51°25' E 001°26'0 0.0
2017-Dec-10 07:00N 51°25' E 001°26'0 0.0
2017-Dec-10 06:31N 51°25' E 001°26'0 0.0
2017-Dec-10 06:00N 51°25' E 001°26'0 0.0
2017-Dec-10 05:30N 51°25' E 001°26'0 0.1
2017-Dec-10 05:00N 51°25' E 001°26'0 0.1
2017-Dec-10 04:30N 51°25' E 001°25'0 0.0
2017-Dec-10 04:00N 51°25' E 001°25'0 0.0
2017-Dec-10 03:30N 51°25' E 001°25'0 0.1
2017-Dec-10 03:00N 51°25' E 001°26'0 0.1
2017-Dec-10 02:30N 51°25' E 001°26'0 0.0
2017-Dec-10 02:00N 51°25' E 001°26'0 0.0
2017-Dec-10 01:30N 51°25' E 001°26'0 0.0
2017-Dec-10 01:00N 51°25' E 001°26'0 0.0
2017-Dec-10 00:30N 51°25' E 001°26'0 0.1
2017-Dec-10 00:00N 51°25' E 001°26'0 0.1
2017-Dec-09 23:30N 51°25' E 001°26'0 0.1
2017-Dec-09 23:00N 51°25' E 001°26'0 0.0
2017-Dec-09 22:30N 51°25' E 001°26'0 0.0
2017-Dec-09 22:01N 51°25' E 001°26'0 0.0
2017-Dec-09 21:30N 51°25' E 001°26'0 0.0
2017-Dec-09 21:00N 51°25' E 001°26'0 0.0
2017-Dec-09 20:30N 51°25' E 001°26'0 0.0
2017-Dec-09 20:00N 51°25' E 001°26'0 0.0
2017-Dec-09 19:30N 51°25' E 001°26'0 0.0
2017-Dec-09 19:00N 51°25' E 001°26'0 0.0
2017-Dec-09 18:30N 51°25' E 001°26'0 0.1
2017-Dec-09 18:01N 51°25' E 001°26'1 2.1
2017-Dec-09 17:30N 51°25' E 001°27'5 9.9
2017-Dec-09 17:01N 51°28' E 001°34'3 6.6
2017-Dec-09 16:30N 51°30' E 001°38'1 2.0
2017-Dec-09 16:00N 51°30' E 001°39'2 3.9
2017-Dec-09 15:30N 51°31' E 001°42'510.1
2017-Dec-09 15:00N 51°33' E 001°49'510.4
2017-Dec-09 14:31N 51°36' E 001°57'611.3
2017-Dec-09 14:00N 51°39' E 002°04'611.7
2017-Dec-09 13:29N 51°43' E 002°12'61 9.6
2017-Dec-09 07:06N 52°28' E 003°18'1 7.8
2017-Dec-09 06:59N 52°29' E 003°19'3 7.3
2017-Dec-09 06:30N 52°32' E 003°22'4 7.3
2017-Dec-09 05:59N 52°35' E 003°26'4 7.1
2017-Dec-09 05:29N 52°38' E 003°30'69 7.4
2017-Dec-08 20:08N 53°31' E 004°44'1 3.0
2017-Dec-08 19:51N 53°31' E 004°45'1 3.5
2017-Dec-08 19:30N 53°30' E 004°47'3 6.8
2017-Dec-08 18:59N 53°32' E 004°52'3 7.0
2017-Dec-08 18:30N 53°33' E 004°57'4 7.6
2017-Dec-08 17:59N 53°34' E 005°04'113 8.2
2017-Dec-08 04:07N 54°01' E 008°10'2 9.5
2017-Dec-08 03:54N 54°00' E 008°14'410.1
2017-Dec-08 03:30N 53°60' E 008°21'5 9.4
2017-Dec-08 03:00N 53°59' E 008°28'4 8.2
2017-Dec-08 02:30N 53°58' E 008°35'4 8.2
2017-Dec-08 02:00N 53°55' E 008°41'4 8.7
2017-Dec-08 01:30N 53°52' E 008°45'4 7.5
2017-Dec-08 01:00N 53°50' E 008°51'4 7.8
2017-Dec-08 00:31N 53°51' E 008°57'4 8.7
2017-Dec-08 00:00N 53°52' E 009°04'3 6.2
2017-Dec-07 23:30N 53°54' E 009°09'0 0.4
2017-Dec-07 23:00N 53°54' E 009°09'2 4.3
2017-Dec-07 22:30N 53°55' E 009°12'0 0.0
2017-Dec-07 21:58N 53°55' E 009°12'0 0.0
2017-Dec-07 21:28N 53°55' E 009°12'0 0.0
2017-Dec-07 20:58N 53°55' E 009°12'0 0.0
2017-Dec-07 20:28N 53°55' E 009°12'0 0.0
2017-Dec-07 19:52N 53°55' E 009°12'0 0.0
2017-Dec-07 19:28N 53°55' E 009°12'0 0.0
2017-Dec-07 18:58N 53°55' E 009°12'0 0.0
2017-Dec-07 18:28N 53°55' E 009°12'0 0.0
2017-Dec-07 17:58N 53°55' E 009°12'0 0.0
2017-Dec-07 17:28N 53°55' E 009°12'0 0.0
2017-Dec-07 16:58N 53°55' E 009°12'0 0.0
2017-Dec-07 16:25N 53°55' E 009°12'0 0.0
2017-Dec-07 15:55N 53°55' E 009°12'0 0.0
2017-Dec-07 15:28N 53°55' E 009°12'0 0.0
2017-Dec-07 14:58N 53°55' E 009°12'0 0.0
2017-Dec-07 14:28N 53°55' E 009°12'0 0.0
2017-Dec-07 13:49N 53°55' E 009°12'0 0.0
2017-Dec-07 13:19N 53°55' E 009°12'0 0.0
2017-Dec-07 12:55N 53°55' E 009°12'0 0.0
2017-Dec-07 12:28N 53°55' E 009°12'0 0.0
2017-Dec-07 11:55N 53°55' E 009°12'0 0.0
2017-Dec-07 11:28N 53°55' E 009°12'0 0.0
2017-Dec-07 10:49N 53°55' E 009°12'0 0.0
2017-Dec-07 10:28N 53°55' E 009°12'0 0.0
2017-Dec-07 09:58N 53°55' E 009°12'0 0.0
2017-Dec-07 09:28N 53°55' E 009°12'0 0.0
2017-Dec-07 08:22N 53°55' E 009°12'0 0.0
2017-Dec-07 07:55N 53°55' E 009°12'0 0.0
2017-Dec-07 07:28N 53°55' E 009°12'0 0.0
2017-Dec-07 06:58N 53°55' E 009°12'0 0.0
2017-Dec-07 06:25N 53°55' E 009°12'0 0.0
2017-Dec-07 05:55N 53°55' E 009°12'0 0.0
2017-Dec-07 05:25N 53°55' E 009°12'0 0.0
2017-Dec-07 04:58N 53°55' E 009°12'0 0.0
2017-Dec-07 04:19N 53°55' E 009°12'0 0.0
2017-Dec-07 03:52N 53°55' E 009°12'0 0.0
2017-Dec-07 03:25N 53°55' E 009°12'0 0.0
2017-Dec-07 02:58N 53°55' E 009°12'0 0.0
2017-Dec-07 02:28N 53°55' E 009°12'0 0.0
2017-Dec-07 01:58N 53°55' E 009°12'0 0.0
2017-Dec-07 01:28N 53°55' E 009°12'0 0.0
2017-Dec-07 00:55N 53°55' E 009°12'0 0.0
2017-Dec-07 00:28N 53°55' E 009°12'0 0.0
2017-Dec-06 23:55N 53°55' E 009°12'0 0.0
2017-Dec-06 23:28N 53°55' E 009°12'0 0.0
2017-Dec-06 22:58N 53°55' E 009°12'0 0.0
2017-Dec-06 22:28N 53°55' E 009°12'0 0.0
2017-Dec-06 21:55N 53°55' E 009°12'0 0.0
2017-Dec-06 21:28N 53°55' E 009°12'0 0.0
2017-Dec-06 20:49N 53°55' E 009°12'  
2017-Dec-04 10:03N 51°31' E 000°08'0 0.0
2017-Dec-04 09:57N 51°31' E 000°08'0 0.0
2017-Dec-04 09:15N 51°31' E 000°08'0 0.0
2017-Dec-04 08:57N 51°31' E 000°08'36 2.4
2017-Dec-03 17:40N 51°30' E 001°06'7 9.8
2017-Dec-03 16:59N 51°29' E 001°17'5 9.7
2017-Dec-03 16:30N 51°28' E 001°24'4 8.2
2017-Dec-03 16:01N 51°25' E 001°30'2 4.5
2017-Dec-03 15:31N 51°25' E 001°26'0 0.1
2017-Dec-03 15:00N 51°25' E 001°26'0 0.0
2017-Dec-03 14:30N 51°25' E 001°26'0 0.0
2017-Dec-03 14:00N 51°25' E 001°26'0 0.0
2017-Dec-03 13:30N 51°25' E 001°26'0 0.0
2017-Dec-03 13:00N 51°25' E 001°26'0 0.1
2017-Dec-03 12:30N 51°25' E 001°26'0 0.3
2017-Dec-03 12:00N 51°25' E 001°26'0 0.0
2017-Dec-03 11:30N 51°25' E 001°26'0 0.0
2017-Dec-03 11:00N 51°25' E 001°26'0 0.7
2017-Dec-03 10:31N 51°25' E 001°25'4 7.0
2017-Dec-03 10:00N 51°27' E 001°30'612.5
2017-Dec-03 09:30N 51°31' E 001°37'713.5
2017-Dec-03 09:01N 51°36' E 001°44'713.6
2017-Dec-03 08:28N 51°44' E 001°44'7711.5
2017-Dec-03 01:47N 52°59' E 002°08'3 9.7
2017-Dec-03 01:30N 53°01' E 002°05'5 9.7
2017-Dec-03 01:00N 53°04' E 001°59'5 9.7
2017-Dec-03 00:30N 53°07' E 001°53'510.0
2017-Dec-03 00:00N 53°10' E 001°46'510.2
2017-Dec-02 23:30N 53°13' E 001°39'510.1
2017-Dec-02 23:00N 53°16' E 001°32'5110.9
2017-Dec-02 18:22N 53°33' E 000°12'411.9
2017-Dec-02 18:00N 53°34' E 000°05'611.6
2017-Dec-02 17:30N 53°36' W 000°04'5 9.0
2017-Dec-02 17:00N 53°38' W 000°11'0 0.5
2017-Dec-02 16:30N 53°38' W 000°12'0 0.0
2017-Dec-02 16:00N 53°38' W 000°12'0 0.0
2017-Dec-01 16:08N 53°38' W 000°12'0 0.0
2017-Dec-01 16:00N 53°38' W 000°12'0 0.6
2017-Dec-01 15:30N 53°38' W 000°11'0 0.3
2017-Dec-01 15:00N 53°38' W 000°11'1 2.3
2017-Dec-01 14:30N 53°38' W 000°09'4 8.3
2017-Dec-01 14:00N 53°36' W 000°03'611.2
2017-Dec-01 13:30N 53°34' E 000°06'510.2
2017-Dec-01 12:58N 53°34' E 000°15'510.0
2017-Dec-01 12:30N 53°37' E 000°20'41 6.5
2017-Dec-01 06:11N 53°13' E 001°16'1 6.7
2017-Dec-01 06:00N 53°13' E 001°17'  
Track history (hours):
 
Tides and Currents Weather Stations Pressure Air Temp Water Temp Dewpoint Dewpoint Depression Visibility Wind Speed Wind Dir Waves Ship Positions

Stolt Shearwater

Last reported at 2017-Dec-11 05:59 UTC. Time now 2017-Dec-11 06:03 UTC.
Position N 51°31' E 000°08'.

Length 96 m; draft 6.6 m.

Type: Ship (hazmat cat D). MMSI: 319402000.

Date/timePositionNaut miles runAvg speedWind from/ knotsBaromVisibWave heightAir tempDewpointWater temp
2017-Dec-11 05:59N 51°31' E 000°08'0 0.0
2017-Dec-11 05:29N 51°31' E 000°08'0 0.0
2017-Dec-11 04:56N 51°31' E 000°08'0 0.0
2017-Dec-11 04:29N 51°31' E 000°08'0 0.0
2017-Dec-11 03:58N 51°31' E 000°08'0 0.0
2017-Dec-11 03:28N 51°31' E 000°08'0 0.0
2017-Dec-11 02:59N 51°31' E 000°08'0 0.0
2017-Dec-11 02:29N 51°31' E 000°08'0 0.0
2017-Dec-11 01:59N 51°31' E 000°08'0 0.0
2017-Dec-11 01:29N 51°31' E 000°08'0 0.0
2017-Dec-11 00:56N 51°31' E 000°08'0 0.0
2017-Dec-11 00:29N 51°31' E 000°08'0 0.0
2017-Dec-10 23:59N 51°31' E 000°08'0 0.0
2017-Dec-10 23:28N 51°31' E 000°08'0 0.0
2017-Dec-10 22:58N 51°31' E 000°08'0 0.0
2017-Dec-10 22:29N 51°31' E 000°08'0 0.0
2017-Dec-10 21:58N 51°31' E 000°08'0 0.0
2017-Dec-10 21:29N 51°31' E 000°08'43 3.6
2017-Dec-10 09:20N 51°29' E 001°18'3 9.8
2017-Dec-10 09:00N 51°28' E 001°23'5 9.1
2017-Dec-10 08:31N 51°26' E 001°29'1 2.7
2017-Dec-10 08:01N 51°25' E 001°27'1 2.2
2017-Dec-10 07:31N 51°25' E 001°26'0 0.0
2017-Dec-10 07:00N 51°25' E 001°26'0 0.0
2017-Dec-10 06:31N 51°25' E 001°26'0 0.0
2017-Dec-10 06:00N 51°25' E 001°26'0 0.0
2017-Dec-10 05:30N 51°25' E 001°26'0 0.1
2017-Dec-10 05:00N 51°25' E 001°26'0 0.1
2017-Dec-10 04:30N 51°25' E 001°25'0 0.0
2017-Dec-10 04:00N 51°25' E 001°25'0 0.0
2017-Dec-10 03:30N 51°25' E 001°25'0 0.1
2017-Dec-10 03:00N 51°25' E 001°26'0 0.1
2017-Dec-10 02:30N 51°25' E 001°26'0 0.0
2017-Dec-10 02:00N 51°25' E 001°26'0 0.0
2017-Dec-10 01:30N 51°25' E 001°26'0 0.0
2017-Dec-10 01:00N 51°25' E 001°26'0 0.0
2017-Dec-10 00:30N 51°25' E 001°26'0 0.1
2017-Dec-10 00:00N 51°25' E 001°26'0 0.1
2017-Dec-09 23:30N 51°25' E 001°26'0 0.1
2017-Dec-09 23:00N 51°25' E 001°26'0 0.0
2017-Dec-09 22:30N 51°25' E 001°26'0 0.0
2017-Dec-09 22:01N 51°25' E 001°26'0 0.0
2017-Dec-09 21:30N 51°25' E 001°26'0 0.0
2017-Dec-09 21:00N 51°25' E 001°26'0 0.0
2017-Dec-09 20:30N 51°25' E 001°26'0 0.0
2017-Dec-09 20:00N 51°25' E 001°26'0 0.0
2017-Dec-09 19:30N 51°25' E 001°26'0 0.0
2017-Dec-09 19:00N 51°25' E 001°26'0 0.0
2017-Dec-09 18:30N 51°25' E 001°26'0 0.1
2017-Dec-09 18:01N 51°25' E 001°26'1 2.1
2017-Dec-09 17:30N 51°25' E 001°27'5 9.9
2017-Dec-09 17:01N 51°28' E 001°34'3 6.6
2017-Dec-09 16:30N 51°30' E 001°38'1 2.0
2017-Dec-09 16:00N 51°30' E 001°39'2 3.9
2017-Dec-09 15:30N 51°31' E 001°42'510.1
2017-Dec-09 15:00N 51°33' E 001°49'510.4
2017-Dec-09 14:31N 51°36' E 001°57'611.3
2017-Dec-09 14:00N 51°39' E 002°04'611.7
2017-Dec-09 13:29N 51°43' E 002°12'61 9.6
2017-Dec-09 07:06N 52°28' E 003°18'1 7.8
2017-Dec-09 06:59N 52°29' E 003°19'3 7.3
2017-Dec-09 06:30N 52°32' E 003°22'4 7.3
2017-Dec-09 05:59N 52°35' E 003°26'4 7.1
2017-Dec-09 05:29N 52°38' E 003°30'69 7.4
2017-Dec-08 20:08N 53°31' E 004°44'1 3.0
2017-Dec-08 19:51N 53°31' E 004°45'1 3.5
2017-Dec-08 19:30N 53°30' E 004°47'3 6.8
2017-Dec-08 18:59N 53°32' E 004°52'3 7.0
2017-Dec-08 18:30N 53°33' E 004°57'4 7.6
2017-Dec-08 17:59N 53°34' E 005°04'113 8.2
2017-Dec-08 04:07N 54°01' E 008°10'2 9.5
2017-Dec-08 03:54N 54°00' E 008°14'410.1
2017-Dec-08 03:30N 53°60' E 008°21'5 9.4
2017-Dec-08 03:00N 53°59' E 008°28'4 8.2
2017-Dec-08 02:30N 53°58' E 008°35'4 8.2
2017-Dec-08 02:00N 53°55' E 008°41'4 8.7
2017-Dec-08 01:30N 53°52' E 008°45'4 7.5
2017-Dec-08 01:00N 53°50' E 008°51'4 7.8
2017-Dec-08 00:31N 53°51' E 008°57'4 8.7
2017-Dec-08 00:00N 53°52' E 009°04'3 6.2
2017-Dec-07 23:30N 53°54' E 009°09'0 0.4
2017-Dec-07 23:00N 53°54' E 009°09'2 4.3
2017-Dec-07 22:30N 53°55' E 009°12'0 0.0
2017-Dec-07 21:58N 53°55' E 009°12'0 0.0
2017-Dec-07 21:28N 53°55' E 009°12'0 0.0
2017-Dec-07 20:58N 53°55' E 009°12'0 0.0
2017-Dec-07 20:28N 53°55' E 009°12'0 0.0
2017-Dec-07 19:52N 53°55' E 009°12'0 0.0
2017-Dec-07 19:28N 53°55' E 009°12'0 0.0
2017-Dec-07 18:58N 53°55' E 009°12'0 0.0
2017-Dec-07 18:28N 53°55' E 009°12'0 0.0
2017-Dec-07 17:58N 53°55' E 009°12'0 0.0
2017-Dec-07 17:28N 53°55' E 009°12'0 0.0
2017-Dec-07 16:58N 53°55' E 009°12'0 0.0
2017-Dec-07 16:25N 53°55' E 009°12'0 0.0
2017-Dec-07 15:55N 53°55' E 009°12'0 0.0
2017-Dec-07 15:28N 53°55' E 009°12'0 0.0
2017-Dec-07 14:58N 53°55' E 009°12'0 0.0
2017-Dec-07 14:28N 53°55' E 009°12'0 0.0
2017-Dec-07 13:49N 53°55' E 009°12'0 0.0
2017-Dec-07 13:19N 53°55' E 009°12'0 0.0
2017-Dec-07 12:55N 53°55' E 009°12'0 0.0
2017-Dec-07 12:28N 53°55' E 009°12'0 0.0
2017-Dec-07 11:55N 53°55' E 009°12'0 0.0
2017-Dec-07 11:28N 53°55' E 009°12'0 0.0
2017-Dec-07 10:49N 53°55' E 009°12'0 0.0
2017-Dec-07 10:28N 53°55' E 009°12'0 0.0
2017-Dec-07 09:58N 53°55' E 009°12'0 0.0
2017-Dec-07 09:28N 53°55' E 009°12'0 0.0
2017-Dec-07 08:22N 53°55' E 009°12'0 0.0
2017-Dec-07 07:55N 53°55' E 009°12'0 0.0
2017-Dec-07 07:28N 53°55' E 009°12'0 0.0
2017-Dec-07 06:58N 53°55' E 009°12'0 0.0
2017-Dec-07 06:25N 53°55' E 009°12'0 0.0
2017-Dec-07 05:55N 53°55' E 009°12'0 0.0
2017-Dec-07 05:25N 53°55' E 009°12'0 0.0
2017-Dec-07 04:58N 53°55' E 009°12'0 0.0
2017-Dec-07 04:19N 53°55' E 009°12'0 0.0
2017-Dec-07 03:52N 53°55' E 009°12'0 0.0
2017-Dec-07 03:25N 53°55' E 009°12'0 0.0
2017-Dec-07 02:58N 53°55' E 009°12'0 0.0
2017-Dec-07 02:28N 53°55' E 009°12'0 0.0
2017-Dec-07 01:58N 53°55' E 009°12'0 0.0
2017-Dec-07 01:28N 53°55' E 009°12'0 0.0
2017-Dec-07 00:55N 53°55' E 009°12'0 0.0
2017-Dec-07 00:28N 53°55' E 009°12'0 0.0
2017-Dec-06 23:55N 53°55' E 009°12'0 0.0
2017-Dec-06 23:28N 53°55' E 009°12'0 0.0
2017-Dec-06 22:58N 53°55' E 009°12'0 0.0
2017-Dec-06 22:28N 53°55' E 009°12'0 0.0
2017-Dec-06 21:55N 53°55' E 009°12'0 0.0
2017-Dec-06 21:28N 53°55' E 009°12'0 0.0
2017-Dec-06 20:49N 53°55' E 009°12'  
2017-Dec-04 10:03N 51°31' E 000°08'0 0.0
2017-Dec-04 09:57N 51°31' E 000°08'0 0.0
2017-Dec-04 09:15N 51°31' E 000°08'0 0.0
2017-Dec-04 08:57N 51°31' E 000°08'36 2.4
2017-Dec-03 17:40N 51°30' E 001°06'7 9.8
2017-Dec-03 16:59N 51°29' E 001°17'5 9.7
2017-Dec-03 16:30N 51°28' E 001°24'4 8.2
2017-Dec-03 16:01N 51°25' E 001°30'2 4.5
2017-Dec-03 15:31N 51°25' E 001°26'0 0.1
2017-Dec-03 15:00N 51°25' E 001°26'0 0.0
2017-Dec-03 14:30N 51°25' E 001°26'0 0.0
2017-Dec-03 14:00N 51°25' E 001°26'0 0.0
2017-Dec-03 13:30N 51°25' E 001°26'0 0.0
2017-Dec-03 13:00N 51°25' E 001°26'0 0.1
2017-Dec-03 12:30N 51°25' E 001°26'0 0.3
2017-Dec-03 12:00N 51°25' E 001°26'0 0.0
2017-Dec-03 11:30N 51°25' E 001°26'0 0.0
2017-Dec-03 11:00N 51°25' E 001°26'0 0.7
2017-Dec-03 10:31N 51°25' E 001°25'4 7.0
2017-Dec-03 10:00N 51°27' E 001°30'612.5
2017-Dec-03 09:30N 51°31' E 001°37'713.5
2017-Dec-03 09:01N 51°36' E 001°44'713.6
2017-Dec-03 08:28N 51°44' E 001°44'7711.5
2017-Dec-03 01:47N 52°59' E 002°08'3 9.7
2017-Dec-03 01:30N 53°01' E 002°05'5 9.7
2017-Dec-03 01:00N 53°04' E 001°59'5 9.7
2017-Dec-03 00:30N 53°07' E 001°53'510.0
2017-Dec-03 00:00N 53°10' E 001°46'510.2
2017-Dec-02 23:30N 53°13' E 001°39'510.1
2017-Dec-02 23:00N 53°16' E 001°32'5110.9
2017-Dec-02 18:22N 53°33' E 000°12'411.9
2017-Dec-02 18:00N 53°34' E 000°05'611.6
2017-Dec-02 17:30N 53°36' W 000°04'5 9.0
2017-Dec-02 17:00N 53°38' W 000°11'0 0.5
2017-Dec-02 16:30N 53°38' W 000°12'0 0.0
2017-Dec-02 16:00N 53°38' W 000°12'0 0.0
2017-Dec-01 16:08N 53°38' W 000°12'0 0.0
2017-Dec-01 16:00N 53°38' W 000°12'0 0.6
2017-Dec-01 15:30N 53°38' W 000°11'0 0.3
2017-Dec-01 15:00N 53°38' W 000°11'1 2.3
2017-Dec-01 14:30N 53°38' W 000°09'4 8.3
2017-Dec-01 14:00N 53°36' W 000°03'611.2
2017-Dec-01 13:30N 53°34' E 000°06'510.2
2017-Dec-01 12:58N 53°34' E 000°15'510.0
2017-Dec-01 12:30N 53°37' E 000°20'41 6.5
2017-Dec-01 06:11N 53°13' E 001°16'1 6.7
2017-Dec-01 06:00N 53°13' E 001°17'  

Dump ship's entire track history